Milwaukee, WI (53219)

9:39 AM CDT on August 30, 2015 (GMT -0500)
Root Creek | | Change Station
CLOSE
Current Station
Personal Weather Station
Location: Milwaukee, WI
Elevation: 781 ft
Nearby Weather Stations

Elev 781 ft 42.97 °N, 88.00 °W | Updated 1 second ago

Fog
Fog
63.9 °F
Feels Like 63.9 °F
N
0.0
Wind Variable Wind from NE
Gusts 0.0 mph

Today
High -- | Low -- °F
--% Chance of Precip.
Yesterday
High -- | Low -- °F
Precip. -- in
6:13 AM 7:30 PM
Full, 99% visible
Pressure 30.09 in
Visibility 1.0 miles
Clouds Overcast 200 ft
Dew Point 64 °F
Humidity 99%
Rainfall 0.00 in
Snow Depth Not available.
UV 1 out of 12
Pollen 8.70 out of 12
Air Quality Not available.
Flu Activity Not available.
SPECI KMKE 301430Z 00000KT 1SM BR OVC002 18/17 A3009 RMK AO2 SFC VIS 1 1/2 T01780172
Pressure 30.09 in
Visibility 1.0 miles
Clouds Overcast 200 ft
Dew Point 64 °F
Humidity 99%
Rainfall 0.00 in
Snow Depth Not available.
UV 1 out of 12
Pollen 8.70 out of 12
Air Quality Not available.
Flu Activity Not available.
SPECI KMKE 301430Z 00000KT 1SM BR OVC002 18/17 A3009 RMK AO2 SFC VIS 1 1/2 T01780172

10-Day Weather Forecast

×

Almanac

Astronomy

Aug. 30, 2015 Rise Set
Actual Time
Civil Twilight
Nautical Twilight
Astronomical Twilight
Moon
Length of Visible Light
Length of Day
Tomorrow will be .
, % of the Moon is Illuminated

Today's Extremes

State Highs State Lows

Community

WunderPhotos

Upload Photos

1,850,974 photos uploaded!

WunderBlogs® & News

Nearby

Air Quality

  Air Quality AQ Index Pollutant
Not available.

Snow Depth

Station Depth Elevation

Earthquake Activity

City Distance Mag. Time & Date
Minimum magnitude displayed is 2.5.

Coastal Water Temperatures

Place Temperature

Stations

Nearby Weather Stations

Station Location Temp. Windchill Dew Point Humidity Wind Precip. Elev Updated Type